Time;durP1;ratioP1;P1;durP2;ratioP2;P2;SDS_P1;SDS_P2;PMS_P1;PMS_P2;Temp;Humidity;BMP_temperature;BMP_pressure;BME280_temperature;BME280_humidity;BME280_pressure;Samples;Min_cycle;Max_cycle;Signal;HPM_P1;HPM_P2
2022/04/19 00:01:27;;;;;;;2.65;1.92;;;19.60;96.30;;;;;;4224945;28;20258;-77
2022/04/19 00:03:29;;;;;;;2.85;2.30;;;19.60;96.30;;;;;;4224487;28;20229;-76
2022/04/19 00:05:32;;;;;;;2.60;2.00;;;19.60;96.30;;;;;;4224647;28;20230;-76
2022/04/19 00:07:35;;;;;;;2.90;2.28;;;19.60;96.70;;;;;;4225382;27;20282;-76
2022/04/19 00:09:37;;;;;;;3.60;2.10;;;19.60;96.30;;;;;;4223188;28;20291;-76
2022/04/19 00:11:39;;;;;;;3.78;2.40;;;19.60;96.40;;;;;;4222749;28;20222;-77
2022/04/19 00:13:42;;;;;;;4.05;2.40;;;19.60;96.30;;;;;;4224826;27;20286;-76
2022/04/19 00:15:44;;;;;;;3.08;2.38;;;19.60;96.40;;;;;;4222651;28;20339;-76
2022/04/19 00:17:51;;;;;;;3.33;2.40;;;19.60;96.40;;;;;;4223122;28;20217;-77
2022/04/19 00:19:54;;;;;;;5.05;2.50;;;19.60;96.50;;;;;;4224090;27;20665;-76
2022/04/19 00:21:59;;;;;;;4.18;2.88;;;19.60;96.50;;;;;;4224939;28;20236;-76
2022/04/19 00:24:01;;;;;;;2.78;2.40;;;19.60;96.50;;;;;;4224398;28;20225;-76
2022/04/19 00:26:03;;;;;;;4.00;3.00;;;19.60;96.50;;;;;;4223597;28;21102;-76
2022/04/19 00:28:06;;;;;;;3.67;2.75;;;19.60;96.60;;;;;;4221433;27;20259;-76
2022/04/19 00:30:09;;;;;;;3.28;2.28;;;19.60;96.60;;;;;;4224120;28;20239;-77
2022/04/19 00:32:12;;;;;;;2.72;2.17;;;19.60;96.60;;;;;;4224276;28;20218;-76
2022/04/19 00:34:16;;;;;;;3.45;2.70;;;19.60;96.60;;;;;;4223986;28;20217;-76
2022/04/19 00:36:20;;;;;;;3.63;2.67;;;19.50;96.60;;;;;;4224225;28;20301;-76
2022/04/19 00:38:23;;;;;;;2.80;2.50;;;19.50;96.60;;;;;;4223674;28;20278;-76
2022/04/19 00:40:26;;;;;;;2.90;2.45;;;19.50;96.50;;;;;;4224899;28;21851;-76
2022/04/19 00:42:29;;;;;;;2.85;2.53;;;19.50;97.00;;;;;;4222033;27;20250;-76
2022/04/19 00:44:37;;;;;;;3.25;2.47;;;19.50;96.50;;;;;;4218084;28;20287;-77
2022/04/19 00:46:42;;;;;;;4.65;2.95;;;19.50;96.40;;;;;;4225693;27;20277;-76
2022/04/19 00:48:45;;;;;;;2.88;2.50;;;19.50;96.60;;;;;;4224709;27;20647;-76
2022/04/19 00:50:50;;;;;;;4.35;2.38;;;19.50;96.60;;;;;;4225542;27;20225;-77
2022/04/19 00:52:53;;;;;;;3.90;2.65;;;19.50;96.60;;;;;;4223568;28;20222;-76
2022/04/19 00:54:55;;;;;;;2.83;2.55;;;19.50;96.60;;;;;;4224922;28;20205;-77
2022/04/19 00:56:58;;;;;;;3.50;2.75;;;19.50;96.70;;;;;;4225690;28;20263;-76
2022/04/19 00:59:00;;;;;;;3.05;2.45;;;19.40;96.70;;;;;;4224241;28;20259;-76
2022/04/19 01:01:04;;;;;;;3.45;2.20;;;19.40;96.80;;;;;;4221174;28;20267;-76
2022/04/19 01:03:08;;;;;;;3.80;2.50;;;19.40;96.50;;;;;;4222892;28;20278;-76
2022/04/19 01:05:11;;;;;;;2.78;2.45;;;19.40;96.60;;;;;;4222673;28;20222;-76
2022/04/19 01:07:16;;;;;;;4.25;2.50;;;19.40;96.50;;;;;;4222240;28;20238;-76
2022/04/19 01:09:19;;;;;;;2.75;2.45;;;19.40;96.90;;;;;;4222967;28;20263;-76
2022/04/19 01:13:41;;;;;;;3.15;2.80;;;19.40;96.90;;;;;;4223935;28;20296;-77
2022/04/19 01:15:46;;;;;;;3.00;2.22;;;19.40;96.80;;;;;;4224128;28;20976;-76
2022/04/19 01:17:49;;;;;;;3.03;2.40;;;19.40;96.40;;;;;;4219249;28;20218;-76
2022/04/19 01:19:52;;;;;;;4.68;2.60;;;19.40;96.70;;;;;;4223558;28;20696;-78
2022/04/19 01:21:57;;;;;;;2.75;2.28;;;19.40;97.00;;;;;;4223357;28;20638;-76
2022/04/19 01:23:59;;;;;;;3.63;2.85;;;19.40;96.90;;;;;;4223876;28;20560;-76
2022/04/19 01:26:02;;;;;;;2.90;2.50;;;19.40;96.80;;;;;;4221905;28;20259;-77
2022/04/19 01:28:05;;;;;;;3.28;2.50;;;19.40;96.60;;;;;;4222926;28;21014;-77
2022/04/19 01:30:09;;;;;;;4.63;2.78;;;19.40;96.70;;;;;;4223091;28;20278;-76
2022/04/19 01:32:13;;;;;;;3.38;2.67;;;19.40;96.60;;;;;;4223483;28;20217;-77
2022/04/19 01:34:19;;;;;;;3.38;2.70;;;19.40;96.70;;;;;;4220415;28;20222;-76
2022/04/19 01:36:21;;;;;;;4.55;2.92;;;19.40;96.60;;;;;;4221312;28;20237;-77
2022/04/19 01:38:25;;;;;;;4.00;2.70;;;19.40;97.00;;;;;;4223764;28;20335;-76
2022/04/19 01:40:27;;;;;;;3.55;2.55;;;19.40;96.90;;;;;;4222899;28;20210;-76
2022/04/19 01:42:31;;;;;;;2.92;2.40;;;19.40;96.90;;;;;;4221938;28;20214;-77
2022/04/19 01:44:34;;;;;;;2.60;2.17;;;19.40;97.20;;;;;;4223812;28;20229;-76
2022/04/19 01:46:40;;;;;;;3.20;2.50;;;19.40;96.80;;;;;;4227360;27;20245;-77
2022/04/19 01:48:42;;;;;;;2.47;2.25;;;19.40;96.80;;;;;;4227488;27;20229;-77
2022/04/19 01:50:45;;;;;;;3.42;2.67;;;19.40;96.60;;;;;;4227293;28;20218;-76
2022/04/19 01:52:49;;;;;;;3.08;2.53;;;19.40;96.80;;;;;;4224046;28;20658;-76
2022/04/19 01:54:54;;;;;;;4.65;2.70;;;19.40;96.80;;;;;;4226258;28;20850;-76
2022/04/19 01:56:56;;;;;;;3.83;2.65;;;19.40;96.60;;;;;;4226467;28;20972;-77
2022/04/19 01:59:00;;;;;;;3.38;2.42;;;19.40;96.80;;;;;;4226924;27;20274;-76
2022/04/19 02:01:02;;;;;;;3.83;2.58;;;19.30;96.70;;;;;;4226797;28;20267;-77
2022/04/19 02:03:05;;;;;;;3.53;2.70;;;19.30;96.70;;;;;;4225599;28;20225;-77
2022/04/19 02:05:08;;;;;;;4.55;2.67;;;19.40;96.80;;;;;;4224932;28;20751;-77
2022/04/19 02:07:13;;;;;;;3.33;2.72;;;19.30;96.80;;;;;;4226139;27;21012;-76
2022/04/19 02:09:16;;;;;;;3.15;2.50;;;19.40;96.90;;;;;;4223722;27;20618;-76
2022/04/19 02:11:23;;;;;;;3.35;2.80;;;19.30;96.80;;;;;;4226265;27;20275;-76
2022/04/19 02:13:26;;;;;;;3.15;2.50;;;19.30;96.80;;;;;;4227024;27;20634;-77
2022/04/19 02:15:28;;;;;;;4.13;2.78;;;19.30;96.80;;;;;;4224922;28;20217;-77
2022/04/19 02:17:31;;;;;;;2.63;2.40;;;19.40;96.90;;;;;;4225457;28;20643;-76
2022/04/19 02:19:33;;;;;;;3.40;2.80;;;19.30;96.80;;;;;;4224520;28;20221;-77
2022/04/19 02:21:35;;;;;;;3.35;2.53;;;19.30;96.80;;;;;;4226297;27;20271;-77
2022/04/19 02:23:38;;;;;;;3.42;2.30;;;19.30;96.80;;;;;;4225311;27;20218;-77
2022/04/19 02:25:40;;;;;;;3.85;3.10;;;19.30;96.90;;;;;;4224470;27;20221;-76
2022/04/19 02:27:45;;;;;;;3.60;2.90;;;19.30;96.90;;;;;;4223886;27;20295;-76
2022/04/19 02:29:47;;;;;;;3.45;2.80;;;19.30;97.00;;;;;;4224386;28;20284;-77
2022/04/19 02:31:49;;;;;;;3.40;2.90;;;19.30;96.90;;;;;;4220826;27;20271;-76
2022/04/19 02:33:52;;;;;;;5.07;2.55;;;19.30;96.80;;;;;;4225747;27;20266;-76
2022/04/19 02:35:54;;;;;;;2.88;2.58;;;19.30;97.00;;;;;;4221905;28;20282;-76
2022/04/19 02:37:58;;;;;;;3.58;2.85;;;19.30;96.70;;;;;;4224423;28;20271;-76
2022/04/19 02:40:01;;;;;;;2.95;2.70;;;19.30;97.20;;;;;;4225562;28;20214;-76
2022/04/19 02:42:03;;;;;;;4.93;3.08;;;19.30;96.90;;;;;;4224171;27;20266;-76
2022/04/19 02:44:08;;;;;;;4.00;3.05;;;19.30;97.00;;;;;;4224507;27;20214;-77
2022/04/19 02:46:10;;;;;;;3.35;2.50;;;19.30;96.90;;;;;;4224563;28;20222;-77
2022/04/19 02:48:13;;;;;;;3.33;3.03;;;19.30;96.90;;;;;;4224734;28;21054;-76
2022/04/19 02:50:16;;;;;;;3.45;2.88;;;19.30;96.90;;;;;;4226048;28;20218;-77
2022/04/19 02:52:18;;;;;;;3.65;2.90;;;19.20;96.90;;;;;;4221143;28;20219;-77
2022/04/19 02:54:20;;;;;;;4.05;2.85;;;19.30;96.90;;;;;;4219681;27;20213;-76
2022/04/19 02:56:23;;;;;;;3.65;2.55;;;19.20;96.90;;;;;;4224518;27;20271;-76
2022/04/19 02:58:25;;;;;;;3.65;3.03;;;19.30;97.00;;;;;;4215654;28;20268;-76
2022/04/19 03:00:29;;;;;;;3.85;2.63;;;19.20;96.80;;;;;;4223077;28;20677;-76
2022/04/19 03:02:31;;;;;;;3.22;2.40;;;19.20;96.70;;;;;;4217830;28;20218;-76
2022/04/19 03:04:33;;;;;;;3.47;2.92;;;19.20;97.30;;;;;;4224176;27;20274;-76
2022/04/19 03:06:36;;;;;;;3.50;3.00;;;19.20;96.80;;;;;;4224425;28;20630;-77
2022/04/19 03:08:41;;;;;;;2.85;2.65;;;19.20;96.90;;;;;;4212833;28;20283;-76
2022/04/19 03:10:43;;;;;;;3.88;2.85;;;19.20;97.00;;;;;;4220064;27;20225;-76
2022/04/19 03:12:46;;;;;;;3.88;3.00;;;19.20;97.00;;;;;;4226847;27;20630;-77
2022/04/19 03:14:48;;;;;;;3.38;2.92;;;19.20;96.90;;;;;;4226383;27;21010;-77
2022/04/19 03:16:52;;;;;;;4.95;3.00;;;19.20;97.00;;;;;;4222938;27;20631;-77
2022/04/19 03:18:58;;;;;;;4.22;3.00;;;19.20;97.00;;;;;;4216329;28;20255;-76
2022/04/19 03:21:01;;;;;;;3.22;2.85;;;19.20;97.00;;;;;;4214937;28;20661;-77
2022/04/19 03:27:52;;;;;;;3.92;3.35;;;19.20;97.00;;;;;;4219838;27;20222;-77
2022/04/19 03:29:54;;;;;;;4.40;2.90;;;19.20;97.00;;;;;;4215886;28;20283;-77
2022/04/19 03:31:59;;;;;;;3.20;2.72;;;19.20;96.90;;;;;;4218372;27;20270;-77
2022/04/19 03:34:02;;;;;;;5.20;3.20;;;19.20;96.90;;;;;;4214374;28;20222;-77
2022/04/19 03:36:08;;;;;;;4.25;3.05;;;19.20;97.00;;;;;;4221433;28;20300;-76
2022/04/19 03:38:10;;;;;;;5.22;2.60;;;19.20;96.90;;;;;;4209083;28;20303;-77
2022/04/19 03:40:15;;;;;;;3.67;3.08;;;19.20;97.10;;;;;;4207486;28;20675;-77
2022/04/19 03:42:20;;;;;;;3.72;3.30;;;19.20;96.90;;;;;;4213390;28;20283;-76
2022/04/19 03:44:23;;;;;;;4.88;3.42;;;19.20;97.00;;;;;;4212842;28;20219;-77
2022/04/19 03:46:25;;;;;;;3.60;3.30;;;19.20;96.90;;;;;;4211864;28;20218;-76
2022/04/19 03:48:29;;;;;;;4.15;3.10;;;19.20;96.90;;;;;;4213723;28;20336;-77
2022/04/19 03:50:31;;;;;;;3.45;3.10;;;19.20;97.00;;;;;;4214426;28;20225;-76
2022/04/19 03:52:34;;;;;;;3.53;2.80;;;19.20;96.90;;;;;;4223524;28;20617;-77
2022/04/19 03:54:37;;;;;;;4.22;3.17;;;19.20;97.00;;;;;;4224079;28;20262;-77
2022/04/19 03:56:39;;;;;;;3.28;2.72;;;19.10;97.00;;;;;;4224524;28;20738;-77
2022/04/19 03:58:42;;;;;;;3.60;3.10;;;19.20;97.00;;;;;;4224438;28;20226;-76
2022/04/19 04:00:44;;;;;;;4.00;3.10;;;19.20;97.00;;;;;;4224187;27;20279;-76
2022/04/19 04:02:46;;;;;;;3.33;3.03;;;19.10;97.00;;;;;;4223770;28;20226;-76
2022/04/19 04:04:50;;;;;;;3.95;2.67;;;19.10;96.90;;;;;;4224867;27;20270;-77
2022/04/19 04:06:52;;;;;;;3.33;2.92;;;19.10;96.90;;;;;;4222574;28;20218;-77
2022/04/19 04:08:55;;;;;;;3.47;2.88;;;19.10;97.00;;;;;;4221986;28;20286;-77
2022/04/19 04:10:57;;;;;;;4.30;3.38;;;19.10;97.10;;;;;;4222710;28;20270;-77
2022/04/19 04:13:00;;;;;;;3.30;3.00;;;19.10;97.10;;;;;;4224005;28;20221;-77
2022/04/19 04:15:02;;;;;;;5.00;3.25;;;19.10;97.00;;;;;;4223996;28;20213;-77
2022/04/19 04:17:05;;;;;;;3.65;2.92;;;19.10;96.90;;;;;;4222052;28;20217;-77
2022/04/19 04:19:07;;;;;;;3.50;3.00;;;19.10;97.00;;;;;;4219543;27;20242;-76
2022/04/19 04:21:11;;;;;;;4.05;3.00;;;19.10;96.90;;;;;;4223638;27;20222;-77
2022/04/19 04:23:13;;;;;;;3.83;3.20;;;19.10;97.00;;;;;;4224282;28;20213;-76
2022/04/19 04:25:16;;;;;;;4.32;3.30;;;19.10;97.10;;;;;;4221405;28;20259;-77
2022/04/19 04:27:18;;;;;;;3.55;3.03;;;19.10;97.00;;;;;;4222764;28;20217;-76
2022/04/19 04:29:20;;;;;;;4.60;3.47;;;19.10;96.90;;;;;;4223041;27;20294;-77
2022/04/19 04:31:22;;;;;;;4.30;3.28;;;19.10;97.10;;;;;;4223168;28;20278;-77
2022/04/19 04:33:26;;;;;;;4.85;3.20;;;19.10;97.10;;;;;;4223710;28;20222;-76
2022/04/19 04:35:28;;;;;;;4.25;3.00;;;19.10;97.00;;;;;;4223083;28;20222;-77
2022/04/19 04:37:32;;;;;;;3.30;3.00;;;19.10;97.30;;;;;;4211321;28;20230;-76
2022/04/19 04:39:34;;;;;;;4.97;3.25;;;19.10;97.00;;;;;;4206609;28;20265;-77
2022/04/19 04:41:36;;;;;;;4.00;3.50;;;19.10;97.00;;;;;;4206044;28;20255;-77
2022/04/19 04:43:40;;;;;;;4.25;3.10;;;19.10;97.00;;;;;;4209582;28;20265;-76
2022/04/19 04:45:42;;;;;;;3.42;3.10;;;19.10;97.00;;;;;;4209923;28;20272;-76
2022/04/19 04:50:04;;;;;;;3.22;2.92;;;19.10;97.10;;;;;;4206953;28;20225;-77
2022/04/19 04:52:08;;;;;;;5.70;3.72;;;19.10;97.10;;;;;;4210055;28;20214;-76
2022/04/19 04:54:12;;;;;;;4.00;3.30;;;19.10;97.40;;;;;;4207916;28;20267;-76
2022/04/19 04:56:14;;;;;;;3.40;3.03;;;19.10;97.00;;;;;;4217010;28;20268;-77
2022/04/19 04:58:17;;;;;;;4.72;3.17;;;19.10;97.00;;;;;;4206573;28;20218;-77
2022/04/19 05:00:19;;;;;;;3.40;3.10;;;19.00;97.00;;;;;;4206280;28;20222;-77
2022/04/19 05:02:23;;;;;;;3.83;3.20;;;19.10;97.20;;;;;;4205516;28;20222;-77
2022/04/19 05:04:25;;;;;;;4.05;3.20;;;19.10;97.20;;;;;;4208864;28;20345;-77
2022/04/19 05:06:28;;;;;;;3.45;3.15;;;19.10;97.20;;;;;;4209059;28;20280;-77
2022/04/19 05:08:31;;;;;;;4.35;3.50;;;19.10;97.40;;;;;;4206619;28;20279;-77
2022/04/19 05:10:34;;;;;;;4.78;4.10;;;19.10;97.20;;;;;;4208781;28;20222;-77
2022/04/19 05:12:37;;;;;;;3.97;3.58;;;19.10;97.10;;;;;;4206593;28;20222;-77
2022/04/19 05:14:39;;;;;;;4.25;3.38;;;19.10;97.10;;;;;;4211643;28;20218;-77
2022/04/19 05:16:42;;;;;;;5.10;3.83;;;19.10;97.00;;;;;;4210095;28;20218;-77
2022/04/19 05:18:44;;;;;;;4.30;3.70;;;19.10;97.10;;;;;;4208106;28;20868;-77
2022/04/19 05:20:47;;;;;;;3.88;3.40;;;19.10;96.90;;;;;;4215368;28;20711;-77
2022/04/19 05:22:49;;;;;;;5.55;3.45;;;19.00;97.00;;;;;;4213698;28;20222;-77
2022/04/19 05:24:51;;;;;;;3.50;3.05;;;19.00;97.00;;;;;;4213442;28;20245;-77
2022/04/19 05:26:55;;;;;;;4.20;3.00;;;19.10;97.10;;;;;;4209674;28;20214;-77
2022/04/19 05:28:57;;;;;;;5.50;3.70;;;19.10;97.00;;;;;;4214787;28;20298;-77
2022/04/19 05:31:00;;;;;;;4.15;3.65;;;19.10;97.20;;;;;;4218153;28;20263;-74
2022/04/19 05:33:02;;;;;;;4.13;3.70;;;19.00;97.10;;;;;;4213424;28;20413;-74
2022/04/19 05:35:05;;;;;;;4.90;3.55;;;19.10;97.20;;;;;;4210155;28;20218;-74
2022/04/19 05:37:08;;;;;;;3.80;3.45;;;19.10;97.10;;;;;;4209855;28;20230;-74
2022/04/19 05:39:10;;;;;;;4.30;3.85;;;19.10;97.20;;;;;;4209271;28;20554;-74
2022/04/19 05:41:12;;;;;;;4.88;3.72;;;19.10;97.10;;;;;;4209355;28;20263;-74
2022/04/19 05:43:16;;;;;;;4.38;3.42;;;19.00;97.20;;;;;;4209361;28;20226;-77
2022/04/19 05:45:19;;;;;;;4.97;3.38;;;19.00;97.20;;;;;;4209553;28;20252;-77
2022/04/19 05:47:21;;;;;;;4.50;3.35;;;19.00;97.00;;;;;;4210233;28;20259;-77
2022/04/19 05:49:23;;;;;;;4.15;3.35;;;19.00;97.10;;;;;;4207610;28;20356;-77
2022/04/19 05:51:26;;;;;;;3.60;3.10;;;19.00;97.10;;;;;;4208636;28;20218;-76
2022/04/19 05:53:28;;;;;;;3.90;3.33;;;19.10;97.20;;;;;;4210148;28;20222;-77
2022/04/19 05:55:30;;;;;;;4.00;3.58;;;19.10;97.10;;;;;;4209975;28;20218;-77
2022/04/19 05:57:33;;;;;;;3.70;3.25;;;19.00;97.10;;;;;;4210901;28;20222;-77
2022/04/19 05:59:36;;;;;;;3.63;3.28;;;19.10;97.10;;;;;;4209413;28;20222;-77
2022/04/19 06:06:18;;;;;;;4.40;3.30;;;19.10;97.10;;;;;;4208899;28;20851;-77
2022/04/19 06:08:21;;;;;;;4.32;3.22;;;19.10;97.00;;;;;;4203778;28;20226;-77
2022/04/19 06:10:23;;;;;;;6.00;3.63;;;19.10;97.10;;;;;;4210194;28;20585;-77
2022/04/19 06:12:26;;;;;;;3.40;3.00;;;19.10;97.20;;;;;;4209425;28;20266;-77
2022/04/19 06:14:28;;;;;;;4.20;3.03;;;19.10;97.10;;;;;;4209379;28;20222;-77
2022/04/19 06:16:32;;;;;;;5.55;3.30;;;19.10;97.10;;;;;;4208440;28;20222;-77
2022/04/19 06:18:35;;;;;;;4.43;3.45;;;19.10;97.10;;;;;;4210320;28;20222;-77
2022/04/19 06:20:37;;;;;;;4.38;3.42;;;19.10;97.10;;;;;;4194332;28;20223;-77
2022/04/19 06:22:39;;;;;;;4.97;3.65;;;19.10;97.20;;;;;;4194389;28;20246;-77
2022/04/19 06:24:42;;;;;;;4.15;3.50;;;19.10;97.10;;;;;;4199366;28;20295;-77
2022/04/19 06:26:44;;;;;;;5.93;3.47;;;19.10;97.10;;;;;;4207726;28;20731;-77
2022/04/19 06:28:46;;;;;;;3.58;2.83;;;19.10;97.10;;;;;;4208893;28;20280;-77
2022/04/19 06:30:49;;;;;;;4.75;3.65;;;19.10;97.10;;;;;;4210017;28;20242;-77
2022/04/19 06:32:53;;;;;;;3.88;3.47;;;19.10;97.20;;;;;;4207494;28;20643;-77
2022/04/19 06:34:55;;;;;;;4.18;3.40;;;19.10;97.20;;;;;;4209296;28;20264;-77
2022/04/19 06:36:58;;;;;;;3.50;3.10;;;19.10;97.20;;;;;;4210891;28;20642;-77
2022/04/19 06:39:00;;;;;;;4.53;2.80;;;19.10;97.10;;;;;;4218763;28;20261;-77
2022/04/19 06:41:02;;;;;;;4.10;2.95;;;19.20;97.20;;;;;;4221646;27;20294;-77
2022/04/19 06:43:05;;;;;;;3.90;2.85;;;19.20;97.20;;;;;;4220865;27;20284;-77
2022/04/19 06:45:08;;;;;;;4.20;3.33;;;19.20;97.30;;;;;;4220721;28;20222;-77
2022/04/19 06:47:10;;;;;;;4.65;3.35;;;19.20;97.20;;;;;;4217814;28;20824;-77
2022/04/19 06:49:14;;;;;;;3.83;3.35;;;19.20;97.30;;;;;;4226553;28;20217;-76
2022/04/19 06:51:17;;;;;;;5.07;3.30;;;19.20;97.40;;;;;;4227734;27;20241;-77
2022/04/19 06:53:20;;;;;;;5.63;3.58;;;19.20;97.50;;;;;;4227097;27;20289;-76
2022/04/19 06:55:22;;;;;;;4.05;3.35;;;19.20;97.30;;;;;;4227654;27;20217;-77
2022/04/19 06:57:26;;;;;;;5.18;3.38;;;19.20;97.10;;;;;;4223685;28;20226;-77
2022/04/19 06:59:30;;;;;;;3.78;2.88;;;19.20;97.20;;;;;;4224415;27;20233;-76
2022/04/19 07:01:32;;;;;;;6.00;3.92;;;19.10;97.20;;;;;;4220472;27;20259;-77
2022/04/19 07:03:35;;;;;;;17.95;14.07;;;19.10;97.20;;;;;;4224293;27;20254;-76
2022/04/19 07:05:39;;;;;;;18.67;15.95;;;19.10;96.60;;;;;;4224778;28;20635;-76
2022/04/19 07:07:42;;;;;;;10.25;7.32;;;19.10;96.40;;;;;;4216257;28;20225;-77
2022/04/19 07:09:45;;;;;;;8.63;6.10;;;19.10;96.90;;;;;;4202876;27;20260;-77
2022/04/19 07:11:47;;;;;;;10.25;7.93;;;19.10;97.00;;;;;;4208156;27;20350;-77
2022/04/19 07:13:50;;;;;;;8.07;6.63;;;19.10;97.10;;;;;;4215289;27;20230;-76
2022/04/19 07:15:52;;;;;;;10.23;8.18;;;19.20;97.00;;;;;;4209280;28;20207;-78
2022/04/19 07:17:55;;;;;;;12.32;7.88;;;19.10;97.10;;;;;;4212521;27;20267;-76
2022/04/19 07:27:00;;;;;;;32.65;21.23;;;19.10;96.50;;;;;;4222684;27;20202;-75
2022/04/19 07:29:02;;;;;;;30.23;20.35;;;19.20;96.00;;;;;;4217323;27;20260;-75
2022/04/19 07:31:05;;;;;;;31.05;22.23;;;19.30;96.00;;;;;;4215427;27;20233;-75
2022/04/19 07:33:08;;;;;;;28.33;21.95;;;19.30;95.90;;;;;;4218279;28;20222;-76
2022/04/19 07:35:10;;;;;;;33.05;21.98;;;19.20;95.80;;;;;;4221178;28;20263;-75
2022/04/19 07:37:12;;;;;;;26.70;20.75;;;19.20;95.60;;;;;;4215617;28;20234;-76
2022/04/19 07:39:17;;;;;;;22.92;17.13;;;19.30;95.70;;;;;;4216304;27;20221;-77
2022/04/19 07:41:20;;;;;;;29.73;20.60;;;19.20;96.10;;;;;;4215663;27;20251;-78
2022/04/19 07:43:23;;;;;;;33.58;20.25;;;19.20;95.90;;;;;;4217944;27;20296;-78
2022/04/19 07:45:25;;;;;;;33.70;21.95;;;19.20;95.50;;;;;;4216744;28;20263;-77
2022/04/19 07:47:27;;;;;;;31.15;21.80;;;19.20;95.40;;;;;;4223042;27;20218;-77
2022/04/19 07:49:29;;;;;;;35.75;20.23;;;19.20;95.40;;;;;;4209462;28;20317;-77
2022/04/19 07:51:32;;;;;;;33.53;21.00;;;19.30;95.40;;;;;;4219065;27;20241;-78
2022/04/19 07:53:34;;;;;;;38.80;22.55;;;19.20;95.30;;;;;;4218162;27;20262;-78
2022/04/19 07:55:38;;;;;;;42.10;23.45;;;19.20;95.30;;;;;;4219860;27;20315;-78
2022/04/19 07:57:40;;;;;;;38.17;23.05;;;19.20;95.00;;;;;;4213968;27;20252;-77
2022/04/19 07:59:42;;;;;;;38.45;22.80;;;19.20;95.30;;;;;;4215255;27;20210;-74
2022/04/19 08:01:45;;;;;;;36.80;21.58;;;19.30;95.40;;;;;;4215699;28;20682;-77
2022/04/19 08:03:47;;;;;;;38.28;22.05;;;19.30;95.40;;;;;;4212106;28;20284;-77
2022/04/19 08:05:50;;;;;;;34.78;19.40;;;19.30;95.40;;;;;;4215984;27;20286;-75
2022/04/19 08:07:53;;;;;;;34.55;19.98;;;19.40;96.20;;;;;;4222719;27;20213;-75
2022/04/19 08:09:58;;;;;;;27.55;14.90;;;19.40;95.70;;;;;;4214585;28;20607;-75
2022/04/19 08:12:02;;;;;;;39.92;21.73;;;19.40;96.30;;;;;;4218595;27;20347;-75
2022/04/19 08:14:05;;;;;;;33.80;20.30;;;19.50;95.30;;;;;;4220480;27;20213;-75
2022/04/19 08:16:08;;;;;;;39.63;21.25;;;19.40;95.40;;;;;;4219961;27;20225;-76
2022/04/19 08:18:13;;;;;;;38.95;20.50;;;19.40;95.50;;;;;;4224172;27;20275;-74
2022/04/19 08:20:15;;;;;;;32.65;20.05;;;19.50;95.80;;;;;;4218083;27;20267;-77
2022/04/19 08:22:18;;;;;;;36.30;19.98;;;19.50;95.60;;;;;;4217158;27;20222;-76
2022/04/19 08:24:20;;;;;;;32.20;18.63;;;19.60;95.70;;;;;;4219469;27;20218;-76
2022/04/19 08:26:22;;;;;;;26.90;15.07;;;19.60;95.90;;;;;;4210310;27;20256;-77
2022/04/19 08:28:26;;;;;;;39.78;15.95;;;19.60;96.00;;;;;;4217211;28;20988;-77
2022/04/19 08:30:28;;;;;;;42.63;20.38;;;19.60;96.20;;;;;;4220348;27;20218;-76
2022/04/19 08:32:31;;;;;;;34.35;16.65;;;19.60;95.40;;;;;;4217838;27;20217;-76
2022/04/19 08:34:33;;;;;;;28.70;14.35;;;19.60;95.20;;;;;;4211534;27;20554;-74
2022/04/19 08:36:35;;;;;;;42.72;16.02;;;19.60;95.70;;;;;;4212867;28;20693;-76
2022/04/19 08:38:38;;;;;;;27.42;13.88;;;19.60;95.10;;;;;;4224648;27;20218;-75
2022/04/19 08:40:40;;;;;;;32.03;14.45;;;19.70;95.00;;;;;;4229506;27;20250;-75
2022/04/19 08:42:43;;;;;;;23.42;13.18;;;19.80;95.10;;;;;;4233453;27;20282;-74
2022/04/19 08:44:47;;;;;;;18.73;11.77;;;19.80;95.20;;;;;;4233410;27;20225;-76
2022/04/19 08:46:49;;;;;;;19.40;11.15;;;19.90;95.30;;;;;;4231380;27;20266;-75
2022/04/19 08:48:52;;;;;;;18.73;9.68;;;19.90;95.80;;;;;;4232983;27;20573;-76
2022/04/19 08:50:56;;;;;;;24.70;10.75;;;19.90;95.90;;;;;;4217217;28;20302;-76
2022/04/19 08:57:37;;;;;;;21.40;10.02;;;20.00;96.00;;;;;;4232986;27;20634;-77
2022/04/19 08:59:40;;;;;;;17.23;8.65;;;20.10;96.00;;;;;;4233623;27;20271;-75
2022/04/19 09:01:44;;;;;;;13.20;8.30;;;20.20;96.10;;;;;;4240628;27;20205;-75
2022/04/19 09:03:46;;;;;;;17.02;7.93;;;20.20;96.50;;;;;;4239733;27;20895;-76
2022/04/19 09:05:53;;;;;;;21.50;9.20;;;20.30;96.20;;;;;;4225093;27;20225;-75
2022/04/19 09:07:57;;;;;;;20.30;8.45;;;20.20;95.40;;;;;;4233765;27;20209;-78
2022/04/19 09:10:00;;;;;;;19.48;7.80;;;20.20;95.90;;;;;;4226473;27;22099;-72
2022/04/19 09:12:11;;;;;;;19.90;7.60;;;20.20;95.90;;;;;;4233467;27;20225;-73
2022/04/19 09:14:14;;;;;;;19.35;7.90;;;20.30;95.80;;;;;;4231213;27;20626;-73
2022/04/19 09:16:16;;;;;;;16.30;6.25;;;20.40;95.80;;;;;;4236604;27;20625;-73
2022/04/19 09:18:26;;;;;;;18.45;6.43;;;20.40;95.80;;;;;;4230114;27;20213;-73
2022/04/19 09:20:28;;;;;;;15.45;6.68;;;20.40;95.80;;;;;;4238336;27;20220;-73
2022/04/19 09:22:30;;;;;;;15.40;6.05;;;20.50;95.90;;;;;;4237044;27;20266;-72
2022/04/19 09:24:34;;;;;;;12.13;5.30;;;20.50;95.90;;;;;;4235367;27;20262;-73
2022/04/19 09:26:44;;;;;;;16.27;5.60;;;20.50;96.00;;;;;;4237445;27;20266;-73
2022/04/19 09:28:47;;;;;;;18.52;6.07;;;20.60;96.10;;;;;;4234906;27;20213;-72
2022/04/19 09:30:51;;;;;;;16.63;5.55;;;20.60;96.10;;;;;;4237504;27;20221;-73
2022/04/19 09:33:02;;;;;;;14.23;5.25;;;20.60;96.30;;;;;;4236971;27;20270;-72
2022/04/19 09:35:06;;;;;;;11.00;4.78;;;20.60;96.30;;;;;;4235731;27;20209;-72
2022/04/19 09:37:11;;;;;;;10.25;4.95;;;20.60;96.40;;;;;;4232252;27;20263;-72
2022/04/19 09:39:26;;;;;;;14.30;4.80;;;20.60;96.50;;;;;;4235572;27;20221;-72
2022/04/19 09:41:31;;;;;;;15.25;4.65;;;20.60;96.50;;;;;;4234905;27;20262;-72
2022/04/19 09:43:34;;;;;;;16.33;4.63;;;20.60;96.50;;;;;;4234721;27;20665;-72
2022/04/19 09:45:46;;;;;;;13.18;4.45;;;20.60;96.50;;;;;;4232250;27;20213;-73
2022/04/19 09:47:52;;;;;;;12.13;4.22;;;20.60;96.70;;;;;;4235949;27;20225;-74
2022/04/19 09:49:55;;;;;;;7.00;3.97;;;20.60;96.70;;;;;;4230309;27;20677;-74
2022/04/19 09:51:58;;;;;;;12.23;4.40;;;20.70;96.90;;;;;;4228841;27;20238;-73
2022/04/19 09:54:01;;;;;;;13.93;4.25;;;20.60;96.90;;;;;;4225479;27;20258;-74
2022/04/19 09:56:10;;;;;;;15.23;4.30;;;20.60;97.00;;;;;;4234682;27;20217;-74
2022/04/19 09:58:13;;;;;;;11.48;4.15;;;20.60;96.80;;;;;;4233480;27;20278;-71
2022/04/19 10:00:19;;;;;;;16.80;4.28;;;20.60;96.80;;;;;;4225047;27;20278;-76
2022/04/19 10:09:27;;;;;;;21.08;4.82;;;20.40;97.70;;;;;;4238611;27;20202;-74
2022/04/19 10:11:30;;;;;;;13.90;4.70;;;20.50;97.80;;;;;;4242041;27;20306;-74
2022/04/19 10:13:33;;;;;;;15.00;4.22;;;20.50;97.60;;;;;;4232617;27;20216;-74
2022/04/19 10:15:40;;;;;;;23.00;4.53;;;20.60;97.30;;;;;;4235594;27;20297;-76
2022/04/19 10:17:45;;;;;;;13.38;4.20;;;20.70;97.20;;;;;;4238380;27;20212;-76
2022/04/19 10:19:51;;;;;;;10.70;3.97;;;20.70;97.20;;;;;;4238822;27;20225;-76
2022/04/19 10:21:54;;;;;;;11.18;4.38;;;20.80;97.10;;;;;;4232309;27;20329;-76
2022/04/19 10:24:12;;;;;;;15.30;3.65;;;20.80;97.10;;;;;;4239815;27;20255;-77
2022/04/19 10:26:20;;;;;;;10.80;3.45;;;20.80;97.10;;;;;;4237206;27;20556;-77
2022/04/19 10:28:27;;;;;;;12.60;3.65;;;20.80;97.50;;;;;;4236829;27;20659;-76
2022/04/19 10:30:32;;;;;;;15.73;3.50;;;20.80;97.30;;;;;;4230454;27;20225;-76
2022/04/19 10:32:34;;;;;;;14.38;4.07;;;20.80;97.30;;;;;;4239401;27;20695;-76
2022/04/19 10:34:38;;;;;;;10.63;3.50;;;20.80;97.20;;;;;;4232438;27;20662;-75
2022/04/19 10:36:42;;;;;;;7.93;3.28;;;20.80;97.00;;;;;;4226717;27;20267;-77
2022/04/19 10:38:46;;;;;;;12.50;3.40;;;20.90;97.10;;;;;;4217131;28;20267;-78
2022/04/19 10:40:53;;;;;;;10.30;3.30;;;20.80;97.40;;;;;;4219494;28;20219;-77
2022/04/19 10:43:14;;;;;;;9.45;3.53;;;20.80;97.20;;;;;;4218609;28;20246;-77
2022/04/19 10:45:24;;;;;;;12.68;3.30;;;20.80;97.10;;;;;;4219332;27;20214;-76
2022/04/19 10:47:28;;;;;;;8.85;3.15;;;20.80;96.70;;;;;;4214307;27;20286;-75
2022/04/19 10:49:30;;;;;;;10.25;3.50;;;20.90;97.40;;;;;;4221035;27;21044;-78
2022/04/19 10:51:33;;;;;;;12.00;3.08;;;20.90;97.00;;;;;;4223347;27;20302;-79
2022/04/19 10:53:35;;;;;;;10.43;3.33;;;20.90;97.00;;;;;;4221195;27;20222;-79
2022/04/19 10:55:39;;;;;;;9.70;3.38;;;20.90;97.00;;;;;;4212538;27;20231;-78
2022/04/19 11:00:21;;;;;;;8.68;3.70;;;20.90;97.10;;;;;;4219710;27;20213;-77
2022/04/19 11:02:36;;;;;;;8.88;3.50;;;20.90;97.30;;;;;;4229244;27;20270;-77
2022/04/19 11:04:39;;;;;;;9.48;3.38;;;21.00;97.00;;;;;;4222286;28;20218;-77
2022/04/19 11:06:42;;;;;;;15.85;3.53;;;21.00;96.80;;;;;;4223478;27;20270;-78
2022/04/19 11:08:44;;;;;;;7.30;3.15;;;21.00;96.80;;;;;;4224276;27;20229;-76
2022/04/19 11:10:47;;;;;;;7.95;2.88;;;21.00;96.80;;;;;;4226452;27;20206;-76
2022/04/19 11:13:00;;;;;;;9.82;3.42;;;20.90;96.90;;;;;;4218493;28;20284;-76
2022/04/19 11:15:14;;;;;;;8.48;2.95;;;21.00;97.00;;;;;;4225502;27;20233;-76